createdAt,value
2023-04-05T00:00:32.003Z,86.61
2023-04-05T00:02:32.570Z,86.9
2023-04-05T00:03:33.415Z,86.9
2023-04-05T00:04:33.684Z,87.27
2023-04-05T00:05:33.705Z,87.18
2023-04-05T00:06:33.686Z,86.71
2023-04-05T00:07:34.719Z,86.99
2023-04-05T00:08:35.420Z,86.42
2023-04-05T00:09:36.119Z,86.42
2023-04-05T00:10:36.869Z,87.08
2023-04-05T00:11:37.636Z,87.08
2023-04-05T00:12:38.327Z,86.8
2023-04-05T00:13:38.840Z,87.18
2023-04-05T00:14:39.804Z,87.27
2023-04-05T00:15:40.494Z,87.37
2023-04-05T00:16:41.290Z,87.65
2023-04-05T00:17:42.335Z,87.37
2023-04-05T00:18:42.391Z,87.37
2023-04-05T00:19:43.083Z,87.93
2023-04-05T00:20:44.024Z,88.31
2023-04-05T00:21:44.712Z,88.22
2023-04-05T00:22:45.199Z,88.6
2023-04-05T00:23:45.797Z,88.41
2023-04-05T00:24:46.934Z,87.84
2023-04-05T00:25:47.686Z,88.12
2023-04-05T00:26:48.390Z,88.22
2023-04-05T00:27:48.659Z,87.65
2023-04-05T00:28:49.556Z,87.84
2023-04-05T00:29:50.170Z,87.27
2023-04-05T00:30:51.263Z,86.8
2023-04-05T00:31:52.404Z,86.99
2023-04-05T00:32:53.418Z,87.46
2023-04-05T00:33:54.062Z,87.46
2023-04-05T00:34:54.152Z,87.27
2023-04-05T00:35:54.497Z,86.99
2023-04-05T00:36:55.404Z,87.27
2023-04-05T00:37:55.294Z,87.27
2023-04-05T00:38:55.812Z,87.27
2023-04-05T00:39:56.321Z,87.93
2023-04-05T00:40:57.227Z,88.12
2023-04-05T00:41:57.250Z,88.22
2023-04-05T00:42:57.748Z,88.6
2023-04-05T00:43:58.238Z,88.88
2023-04-05T00:44:58.721Z,88.69
2023-04-05T00:45:59.514Z,88.69
2023-04-05T00:47:00.457Z,88.88
2023-04-05T00:48:01.099Z,89.26
2023-04-05T00:49:01.960Z,89.36
2023-04-05T00:50:03.078Z,89.36
2023-04-05T00:51:03.202Z,89.54
2023-04-05T00:52:04.048Z,89.73
2023-04-05T00:53:04.945Z,90.2
2023-04-05T00:54:05.453Z,90.01
2023-04-05T00:55:05.942Z,90.3
2023-04-05T00:56:07.067Z,89.83
2023-04-05T00:57:07.572Z,90.2
2023-04-05T00:58:08.289Z,90.58
2023-04-05T00:59:08.900Z,90.3
2023-04-05T01:00:09.533Z,90.01
2023-04-05T01:01:10.311Z,89.83
2023-04-05T01:02:10.677Z,89.73
2023-04-05T01:03:11.531Z,89.36
2023-04-05T01:04:12.006Z,89.54
2023-04-05T01:05:12.841Z,89.64
2023-04-05T01:06:16.194Z,89.73
2023-04-05T01:07:14.984Z,90.3
2023-04-05T01:08:15.454Z,90.39
2023-04-05T01:09:16.344Z,90.3
2023-04-05T01:10:17.033Z,89.83
2023-04-05T01:11:17.987Z,89.73
2023-04-05T01:12:18.196Z,89.73
2023-04-05T01:13:19.298Z,89.45
2023-04-05T01:14:19.802Z,89.26
2023-04-05T01:15:20.486Z,90.01
2023-04-05T01:16:21.491Z,90.16
2023-04-05T01:17:21.879Z,89.59
2023-04-05T01:18:22.886Z,89.64
2023-04-05T01:19:23.762Z,89.59
2023-04-05T01:20:24.447Z,89.5
2023-04-05T01:21:24.935Z,89.64
2023-04-05T01:22:25.167Z,89.4
2023-04-05T01:23:25.648Z,89.59
2023-04-05T01:24:26.445Z,89.59
2023-04-05T01:25:27.387Z,89.97
2023-04-05T01:26:27.341Z,90.25
2023-04-05T01:27:27.878Z,90.11
2023-04-05T01:28:28.174Z,89.97
2023-04-05T01:29:28.876Z,89.97
2023-04-05T01:30:29.578Z,89.87
2023-04-05T01:31:30.030Z,89.92
2023-04-05T01:32:30.395Z,89.87
2023-04-05T01:33:30.621Z,90.91
2023-04-05T01:34:31.307Z,90.06
2023-04-05T01:35:31.587Z,90.63
2023-04-05T01:36:31.988Z,90.44
2023-04-05T01:37:32.489Z,90.44
2023-04-05T01:38:33.202Z,90.49
2023-04-05T01:39:33.699Z,89.87
2023-04-05T01:40:33.965Z,90.16
2023-04-05T01:41:35.039Z,90.35
2023-04-05T01:42:35.326Z,89.97
2023-04-05T01:43:35.608Z,90.63
2023-04-05T01:44:36.503Z,90.16
2023-04-05T01:45:36.967Z,91.2
2023-04-05T01:46:37.603Z,90.73
2023-04-05T01:47:38.419Z,90.73
2023-04-05T01:48:39.392Z,91.01
2023-04-05T01:49:40.090Z,90.82
2023-04-05T01:50:41.120Z,90.35
2023-04-05T01:51:42.263Z,90.35
2023-04-05T01:52:42.916Z,91.2
2023-04-05T01:53:43.843Z,90.82
2023-04-05T01:54:44.340Z,91.1
2023-04-05T01:55:44.846Z,91.58
2023-04-05T01:56:45.774Z,91.48
2023-04-05T01:57:46.475Z,91.01
2023-04-05T01:58:47.010Z,91.86
2023-04-05T01:59:47.741Z,92.14
2023-04-05T02:00:48.859Z,92.05
2023-04-05T02:01:48.654Z,92.24
2023-04-05T02:02:49.116Z,92.71
2023-04-05T02:03:49.735Z,93.37
2023-04-05T02:04:50.428Z,93.28
2023-04-05T02:05:50.936Z,92.71
2023-04-05T02:06:51.593Z,92.8
2023-04-05T02:07:52.115Z,93.09
2023-04-05T02:08:52.793Z,92.43
2023-04-05T02:09:53.473Z,92.71
2023-04-05T02:10:54.208Z,92.43
2023-04-05T02:11:55.415Z,93.18
2023-04-05T02:12:56.416Z,92.99
2023-04-05T02:13:56.537Z,92.99
2023-04-05T02:14:56.877Z,92.24
2023-04-05T02:15:57.749Z,91.96
2023-04-05T02:16:58.470Z,92.05
2023-04-05T02:17:59.175Z,91.67
2023-04-05T02:18:59.868Z,91.67
2023-04-05T02:20:00.763Z,91.53
2023-04-05T02:21:01.264Z,91.2
2023-04-05T02:22:01.957Z,91.1
2023-04-05T02:23:02.619Z,90.82
2023-04-05T02:24:03.300Z,90.58
2023-04-05T02:25:03.592Z,90.77
2023-04-05T02:26:04.331Z,90.82
2023-04-05T02:27:05.108Z,91.05
2023-04-05T02:28:05.597Z,90.86
2023-04-05T02:29:05.766Z,90.39
2023-04-05T02:30:06.264Z,90.2
2023-04-05T02:31:06.958Z,90.01
2023-04-05T02:32:08.027Z,90.63
2023-04-05T02:33:08.253Z,90.68
2023-04-05T02:34:08.441Z,91.01
2023-04-05T02:35:09.373Z,90.63
2023-04-05T02:36:10.031Z,90.35
2023-04-05T02:37:10.927Z,90.35
2023-04-05T02:38:11.999Z,91.01
2023-04-05T02:39:12.688Z,90.25
2023-04-05T02:40:12.967Z,91.1
2023-04-05T02:41:13.891Z,91.58
2023-04-05T02:42:14.788Z,91.29
2023-04-05T02:43:15.028Z,91.67
2023-04-05T02:44:15.308Z,91.77
2023-04-05T02:45:16.012Z,92.33
2023-04-05T02:46:16.377Z,92.33
2023-04-05T02:47:17.230Z,92.61
2023-04-05T02:48:18.196Z,92.05
2023-04-05T02:49:18.307Z,92.05
2023-04-05T02:50:19.006Z,91.2
2023-04-05T02:51:19.322Z,91.1
2023-04-05T02:52:20.038Z,91.29
2023-04-05T02:53:20.249Z,91.39
2023-04-05T02:54:21.143Z,91.39
2023-04-05T02:55:21.817Z,91.39
2023-04-05T02:56:22.523Z,91.29
2023-04-05T02:57:23.472Z,91.1
2023-04-05T02:58:23.794Z,90.82
2023-04-05T02:59:24.819Z,90.63
2023-04-05T03:00:25.795Z,90.82
2023-04-05T03:01:26.876Z,91.29
2023-04-05T03:02:27.478Z,91.67
2023-04-05T03:03:28.530Z,92.24
2023-04-05T03:04:28.481Z,92.14
2023-04-05T03:05:28.781Z,93.18
2023-04-05T03:06:29.705Z,93.09
2023-04-05T03:07:30.427Z,93.09
2023-04-05T03:08:31.141Z,93.09
2023-04-05T03:09:31.995Z,92.43
2023-04-05T03:10:32.692Z,92.14
2023-04-05T03:11:34.102Z,92.05
2023-04-05T03:12:34.037Z,92.24
2023-04-05T03:13:34.388Z,92.43
2023-04-05T03:14:35.270Z,92.8
2023-04-05T03:15:36.036Z,93.37
2023-04-05T03:16:38.811Z,93.56
2023-04-05T03:17:37.113Z,93.37
2023-04-05T03:18:37.822Z,92.9
2023-04-05T03:19:38.545Z,92.61
2023-04-05T03:20:39.441Z,93.09
2023-04-05T03:21:40.270Z,92.43
2023-04-05T03:22:40.957Z,92.52
2023-04-05T03:23:41.612Z,92.61
2023-04-05T03:24:42.309Z,92.61
2023-04-05T03:25:42.741Z,92.9
2023-04-05T03:26:42.617Z,92.99
2023-04-05T03:27:43.559Z,92.61
2023-04-05T03:28:44.235Z,92.99
2023-04-05T03:29:45.178Z,92.61
2023-04-05T03:30:46.077Z,92.24
2023-04-05T03:31:46.962Z,92.05
2023-04-05T03:32:47.236Z,91.96
2023-04-05T03:33:48.001Z,92.33
2023-04-05T03:34:48.710Z,92.61
2023-04-05T03:35:49.403Z,92.99
2023-04-05T03:36:49.562Z,92.99
2023-04-05T03:37:50.486Z,92.52
2023-04-05T03:38:51.231Z,92.43
2023-04-05T03:39:51.706Z,92.24
2023-04-05T03:40:51.989Z,92.52
2023-04-05T03:41:52.707Z,92.61
2023-04-05T03:42:53.749Z,92.43
2023-04-05T03:43:54.095Z,92.43
2023-04-05T03:44:54.805Z,93.09
2023-04-05T03:45:55.340Z,92.8
2023-04-05T03:46:55.800Z,92.71
2023-04-05T03:47:56.637Z,92.71
2023-04-05T03:48:56.548Z,92.61
2023-04-05T03:49:57.525Z,92.61
2023-04-05T03:50:58.270Z,92.61
2023-04-05T03:51:58.975Z,93.09
2023-04-05T03:52:59.689Z,92.9
2023-04-05T03:54:00.311Z,93.09
2023-04-05T03:55:00.812Z,92.99
2023-04-05T03:56:01.004Z,93.09
2023-04-05T03:57:01.568Z,93.94
2023-04-05T03:58:02.503Z,93.37
2023-04-05T03:59:03.050Z,93.18
2023-04-05T04:00:03.951Z,93.56
2023-04-05T04:01:04.078Z,92.99
2023-04-05T04:02:04.829Z,93.66
2023-04-05T04:03:05.057Z,93.94
2023-04-05T04:04:05.531Z,94.22
2023-04-05T04:05:06.563Z,94.22
2023-04-05T04:06:06.813Z,94.22
2023-04-05T04:07:07.196Z,94.41
2023-04-05T04:08:07.866Z,94.22
2023-04-05T04:09:08.181Z,94.41
2023-04-05T04:10:08.662Z,94.22
2023-04-05T04:11:09.581Z,94.32
2023-04-05T04:12:10.276Z,94.51
2023-04-05T04:13:11.218Z,94.89
2023-04-05T04:14:11.239Z,94.7
2023-04-05T04:15:11.585Z,94.7
2023-04-05T04:16:11.954Z,95.07
2023-04-05T04:17:12.009Z,95.26
2023-04-05T04:18:12.733Z,95.17
2023-04-05T04:19:13.235Z,95.36
2023-04-05T04:20:13.970Z,95.54
2023-04-05T04:21:14.255Z,95.73
2023-04-05T04:22:14.944Z,96.3
2023-04-05T04:23:15.710Z,96.11
2023-04-05T04:24:16.000Z,96.02
2023-04-05T04:25:16.541Z,96.21
2023-04-05T04:26:17.226Z,95.73
2023-04-05T04:27:17.920Z,96.02
2023-04-05T04:28:18.690Z,95.64
2023-04-05T04:29:19.390Z,95.64
2023-04-05T04:30:19.693Z,95.73
2023-04-05T04:31:20.228Z,95.36
2023-04-05T04:32:20.916Z,95.54
2023-04-05T04:33:21.475Z,95.83
2023-04-05T04:34:22.101Z,95.73
2023-04-05T04:35:22.900Z,95.92
2023-04-05T04:36:24.494Z,96.11
2023-04-05T04:37:23.975Z,96.02
2023-04-05T04:38:24.448Z,95.92
2023-04-05T04:39:25.169Z,96.3
2023-04-05T04:40:25.897Z,96.11
2023-04-05T04:41:26.587Z,95.73
2023-04-05T04:42:27.094Z,95.83
2023-04-05T04:43:27.894Z,95.54
2023-04-05T04:44:28.505Z,95.17
2023-04-05T04:45:28.943Z,95.17
2023-04-05T04:46:29.548Z,95.83
2023-04-05T04:47:29.993Z,95.73
2023-04-05T04:48:31.105Z,95.64
2023-04-05T04:49:31.611Z,95.64
2023-04-05T04:50:32.153Z,94.79
2023-04-05T04:51:32.854Z,95.07
2023-04-05T04:52:33.156Z,95.07
2023-04-05T04:53:33.650Z,94.98
2023-04-05T04:54:34.385Z,94.89
2023-04-05T04:55:35.047Z,95.45
2023-04-05T04:56:35.402Z,95.26
2023-04-05T04:57:36.084Z,95.45
2023-04-05T04:58:36.850Z,95.45
2023-04-05T04:59:37.681Z,95.26
2023-04-05T05:00:38.490Z,94.79
2023-04-05T05:01:38.882Z,94.89
2023-04-05T05:02:39.440Z,95.26
2023-04-05T05:03:40.129Z,94.79
2023-04-05T05:04:40.999Z,95.64
2023-04-05T05:05:41.726Z,95.45
2023-04-05T05:06:42.261Z,95.07
2023-04-05T05:07:43.183Z,95.26
2023-04-05T05:08:43.497Z,95.73
2023-04-05T05:09:44.420Z,95.64
2023-04-05T05:10:45.253Z,95.54
2023-04-05T05:11:45.739Z,95.26
2023-04-05T05:12:46.274Z,95.54
2023-04-05T05:13:50.632Z,95.26
2023-04-05T05:14:47.656Z,95.36
2023-04-05T05:15:48.099Z,95.07
2023-04-05T05:16:48.869Z,94.7
2023-04-05T05:17:49.550Z,94.7
2023-04-05T05:18:49.741Z,95.26
2023-04-05T05:19:50.649Z,95.26
2023-04-05T05:20:51.454Z,95.45
2023-04-05T05:21:51.963Z,95.26
2023-04-05T05:22:52.861Z,95.26
2023-04-05T05:23:53.552Z,94.98
2023-04-05T05:24:54.594Z,94.6
2023-04-05T05:25:55.277Z,94.6
2023-04-05T05:26:55.752Z,94.7
2023-04-05T05:27:56.670Z,94.89
2023-04-05T05:28:56.892Z,95.07
2023-04-05T05:29:57.589Z,95.17
2023-04-05T05:30:58.550Z,95.54
2023-04-05T05:31:59.173Z,95.07
2023-04-05T05:32:59.383Z,94.79
2023-04-05T05:34:00.218Z,94.98
2023-04-05T05:35:00.819Z,94.89
2023-04-05T05:36:01.806Z,94.89
2023-04-05T05:37:02.826Z,94.32
2023-04-05T05:38:03.182Z,94.03
2023-04-05T05:39:03.428Z,93.84
2023-04-05T05:40:04.362Z,93.84
2023-04-05T05:41:05.046Z,93.75
2023-04-05T05:42:05.748Z,93.75
2023-04-05T05:43:06.464Z,94.03
2023-04-05T05:44:07.515Z,94.22
2023-04-05T05:45:07.924Z,94.51
2023-04-05T05:46:08.497Z,95.07
2023-04-05T05:47:08.920Z,94.89
2023-04-05T05:48:09.592Z,94.32
2023-04-05T05:49:10.121Z,94.32
2023-04-05T05:50:11.057Z,94.51
2023-04-05T05:51:11.000Z,93.56
2023-04-05T05:52:11.824Z,93.94
2023-04-05T05:53:12.304Z,93.99
2023-04-05T05:54:12.795Z,93.7
2023-04-05T05:55:13.623Z,93.09
2023-04-05T05:56:14.316Z,93.13
2023-04-05T05:57:14.869Z,93.61
2023-04-05T05:58:15.612Z,92.85
2023-04-05T05:59:16.604Z,92.85
2023-04-05T06:00:17.299Z,92.57
2023-04-05T06:01:17.712Z,92.19
2023-04-05T06:02:18.277Z,91.53
2023-04-05T06:03:19.425Z,92.1
2023-04-05T06:04:19.811Z,91.34
2023-04-05T06:05:19.701Z,91.15
2023-04-05T06:06:20.381Z,91.81
2023-04-05T06:07:21.095Z,91.81
2023-04-05T06:08:21.996Z,91.81
2023-04-05T06:09:22.726Z,91.53
2023-04-05T06:10:23.239Z,91.34
2023-04-05T06:11:24.195Z,90.96
2023-04-05T06:12:25.297Z,90.3
2023-04-05T06:13:25.197Z,90.58
2023-04-05T06:14:26.258Z,90.86
2023-04-05T06:15:26.853Z,90.01
2023-04-05T06:16:27.854Z,90.2
2023-04-05T06:17:28.057Z,90.39
2023-04-05T06:18:28.324Z,90.96
2023-04-05T06:19:28.823Z,89.83
2023-04-05T06:20:29.727Z,89.83
2023-04-05T06:21:30.143Z,90.2
2023-04-05T06:22:30.861Z,89.31
2023-04-05T06:23:31.188Z,89.87
2023-04-05T06:24:31.928Z,89.02
2023-04-05T06:25:32.361Z,89.31
2023-04-05T06:26:33.423Z,89.87
2023-04-05T06:27:33.874Z,88.97
2023-04-05T06:28:34.409Z,86.7
2023-04-05T06:29:34.977Z,83.33
2023-04-05T06:30:35.376Z,80.44
2023-04-05T06:31:36.050Z,77.73
2023-04-05T06:32:36.847Z,74.92
2023-04-05T06:33:37.278Z,72.4
2023-04-05T06:34:37.791Z,70.78
2023-04-05T06:35:38.640Z,69.02
2023-04-05T06:36:39.803Z,68.35
2023-04-05T06:37:40.517Z,67.34
2023-04-05T06:38:41.411Z,65.67
2023-04-05T06:39:42.090Z,63.95
2023-04-05T06:40:42.964Z,62.18
2023-04-05T06:41:43.367Z,61.55
2023-04-05T06:42:43.491Z,60.5
2023-04-05T06:43:44.016Z,59.58
2023-04-05T06:44:44.818Z,58.34
2023-04-05T06:45:45.346Z,58.37
2023-04-05T06:46:45.757Z,57.42
2023-04-05T06:47:46.398Z,57.13
2023-04-05T06:48:46.762Z,57.23
2023-04-05T06:49:47.733Z,56.59
2023-04-05T06:50:48.173Z,56.21
2023-04-05T06:51:48.092Z,56.02
2023-04-05T06:52:49.197Z,56.3
2023-04-05T06:53:49.743Z,55.54
2023-04-05T06:54:50.444Z,54.33
2023-04-05T06:55:51.267Z,53.09
2023-04-05T06:56:51.569Z,52.33
2023-04-05T06:57:52.134Z,51.28
2023-04-05T06:58:52.592Z,51.4
2023-04-05T06:59:53.714Z,51.31
2023-04-05T07:00:54.442Z,51.02
2023-04-05T07:01:55.433Z,51.02
2023-04-05T07:02:55.702Z,51.88
2023-04-05T07:03:55.643Z,52.16
2023-04-05T07:04:56.926Z,51.68
2023-04-05T07:05:57.579Z,51.97
2023-04-05T07:06:58.316Z,51.59
2023-04-05T07:07:58.625Z,51.81
2023-04-05T07:08:59.503Z,51.5
2023-04-05T07:10:00.228Z,51.52
2023-04-05T07:11:00.931Z,50.95
2023-04-05T07:12:02.037Z,50.09
2023-04-05T07:13:02.782Z,49.42
2023-04-05T07:14:03.276Z,49.16
2023-04-05T07:15:04.296Z,49.54
2023-04-05T07:16:04.495Z,49.54
2023-04-05T07:17:04.485Z,49.07
2023-04-05T07:18:05.304Z,49.09
2023-04-05T07:19:05.897Z,47.94
2023-04-05T07:20:06.868Z,48.23
2023-04-05T07:21:07.780Z,47.2
2023-04-05T07:22:07.952Z,47.58
2023-04-05T07:23:07.649Z,47.97
2023-04-05T07:24:08.084Z,47.68
2023-04-05T07:25:08.552Z,47.11
2023-04-05T07:26:09.044Z,47.47
2023-04-05T07:27:09.999Z,48.33
2023-04-05T07:28:11.144Z,48.71
2023-04-05T07:29:12.097Z,47.82
2023-04-05T07:30:12.840Z,48.39
2023-04-05T07:31:12.537Z,48.49
2023-04-05T07:32:13.572Z,49.35
2023-04-05T07:33:14.117Z,49.44
2023-04-05T07:34:14.825Z,50.02
2023-04-05T07:35:15.367Z,50.18
2023-04-05T07:36:16.253Z,50.67
2023-04-05T07:37:16.831Z,50.47
2023-04-05T07:38:17.054Z,50.57
2023-04-05T07:39:17.958Z,50.12
2023-04-05T07:40:18.292Z,49.83
2023-04-05T07:41:19.252Z,49.35
2023-04-05T07:42:19.151Z,49.28
2023-04-05T07:43:20.085Z,48.61
2023-04-05T07:44:20.820Z,48.61
2023-04-05T07:45:21.770Z,48.54
2023-04-05T07:46:22.602Z,48.54
2023-04-05T07:47:22.658Z,49.21
2023-04-05T07:48:23.253Z,47.97
2023-04-05T07:49:23.578Z,48.35
2023-04-05T07:50:24.550Z,47.11
2023-04-05T07:51:24.643Z,46.82
2023-04-05T07:52:25.596Z,46.34
2023-04-05T07:53:25.714Z,47.39
2023-04-05T07:54:25.633Z,46.72
2023-04-05T07:55:26.576Z,45.77
2023-04-05T07:56:27.382Z,46.89
2023-04-05T07:57:27.312Z,47.75
2023-04-05T07:58:28.447Z,48.42
2023-04-05T07:59:29.208Z,48.42
2023-04-05T08:00:29.647Z,49.35
2023-04-05T08:01:29.946Z,49.83
2023-04-05T08:02:30.571Z,49.54
2023-04-05T08:03:31.098Z,49.62
2023-04-05T08:04:31.599Z,49.04
2023-04-05T08:05:32.704Z,50.54
2023-04-05T08:06:33.504Z,50.83
2023-04-05T08:07:33.619Z,51.5
2023-04-05T08:08:34.114Z,51.76
2023-04-05T08:09:35.048Z,52.61
2023-04-05T08:10:35.741Z,53.09
2023-04-05T08:11:36.936Z,53.73
2023-04-05T08:12:38.973Z,54.68
2023-04-05T08:13:38.018Z,53.95
2023-04-05T08:14:38.514Z,53.28
2023-04-05T08:15:39.495Z,53.47
2023-04-05T08:16:39.563Z,53.09
2023-04-05T08:17:40.526Z,53.66
2023-04-05T08:18:40.577Z,54.17
2023-04-05T08:19:41.082Z,53.41
2023-04-05T08:20:41.730Z,51.81
2023-04-05T08:21:42.377Z,50.78
2023-04-05T08:22:43.212Z,50.52
2023-04-05T08:23:44.158Z,50.14
2023-04-05T08:24:44.321Z,50.69
2023-04-05T08:25:47.911Z,50.02
2023-04-05T08:27:46.356Z,50.09
2023-04-05T08:28:47.102Z,50.73
2023-04-05T08:29:47.859Z,51.31
2023-04-05T08:30:49.122Z,51.95
2023-04-05T08:31:49.181Z,53.09
2023-04-05T08:32:49.146Z,54.14
2023-04-05T08:33:49.996Z,54.24
2023-04-05T08:34:50.166Z,53.59
2023-04-05T08:35:50.533Z,53.78
2023-04-05T08:36:54.078Z,54.17
2023-04-05T08:37:51.852Z,53.5
2023-04-05T08:38:52.337Z,53.69
2023-04-05T08:39:53.273Z,53.12
2023-04-05T08:40:53.876Z,52.45
2023-04-05T08:41:53.999Z,52.83
2023-04-05T08:42:54.738Z,51.97
2023-04-05T08:43:55.653Z,51.5
2023-04-05T08:44:56.399Z,51.59
2023-04-05T08:45:56.960Z,51.95
2023-04-05T08:46:57.500Z,52.8
2023-04-05T08:47:58.148Z,52.04
2023-04-05T08:48:59.098Z,53.19
2023-04-05T08:50:00.046Z,53.28
2023-04-05T08:51:00.766Z,53.66
2023-04-05T08:52:01.629Z,53.38
2023-04-05T08:53:02.365Z,53.44
2023-04-05T08:54:03.081Z,53.19
2023-04-05T08:55:03.997Z,53.09
2023-04-05T08:56:03.921Z,53
2023-04-05T08:57:04.821Z,52.8
2023-04-05T08:58:05.799Z,52.55
2023-04-05T08:59:06.758Z,52.07
2023-04-05T09:00:07.711Z,51.97
2023-04-05T09:01:08.579Z,51.5
2023-04-05T09:02:08.656Z,51.02
2023-04-05T09:03:09.677Z,50.92
2023-04-05T09:04:09.884Z,51.21
2023-04-05T09:05:09.993Z,51.12
2023-04-05T09:06:10.174Z,51.5
2023-04-05T09:07:10.410Z,52.26
2023-04-05T09:08:11.537Z,52.55
2023-04-05T09:09:12.235Z,52.92
2023-04-05T09:10:13.130Z,53.78
2023-04-05T09:11:14.265Z,51.68
2023-04-05T09:12:15.670Z,50.76
2023-04-05T09:13:15.370Z,50.85
2023-04-05T09:14:16.135Z,50.38
2023-04-05T09:15:17.061Z,49.62
2023-04-05T09:16:17.872Z,50.63
2023-04-05T09:17:18.077Z,50.92
2023-04-05T09:18:31.360Z,51.59
2023-04-05T09:19:19.260Z,52.55
2023-04-05T09:20:19.784Z,52.64
2023-04-05T09:21:20.736Z,52.19
2023-04-05T09:22:21.450Z,51.04
2023-04-05T09:23:21.375Z,51.26
2023-04-05T09:24:22.289Z,50.78
2023-04-05T09:25:23.208Z,48.99
2023-04-05T09:26:24.123Z,49.09
2023-04-05T09:27:25.155Z,48.61
2023-04-05T09:28:26.046Z,48.23
2023-04-05T09:29:26.999Z,48.07
2023-04-05T09:30:27.549Z,47.47
2023-04-05T09:31:27.780Z,48.23
2023-04-05T09:32:28.166Z,48.23
2023-04-05T09:33:29.008Z,49.44
2023-04-05T09:34:29.121Z,50.09
2023-04-05T09:35:29.678Z,50.83
2023-04-05T09:36:30.907Z,51.31
2023-04-05T09:37:31.747Z,53.56
2023-04-05T09:38:32.020Z,53.76
2023-04-05T09:39:32.584Z,54.11
2023-04-05T09:40:33.566Z,53.25
2023-04-05T09:41:34.217Z,53.7
2023-04-05T09:42:34.547Z,54.35
2023-04-05T09:43:34.467Z,55.29
2023-04-05T09:44:35.235Z,56.31
2023-04-05T09:45:36.136Z,57.84
2023-04-05T09:46:37.401Z,58.31
2023-04-05T09:47:37.328Z,57.93
2023-04-05T09:48:38.123Z,57.55
2023-04-05T09:49:39.026Z,58.22
2023-04-05T09:50:39.264Z,58.88
2023-04-05T09:51:39.739Z,59.07
2023-04-05T09:52:40.673Z,59.39
2023-04-05T09:53:41.413Z,59.67
2023-04-05T09:54:42.118Z,58.06
2023-04-05T09:55:42.885Z,58.28
2023-04-05T09:56:43.589Z,57.35
2023-04-05T09:57:44.400Z,55.19
2023-04-05T09:58:45.137Z,52.33
2023-04-05T09:59:45.365Z,51.02
2023-04-05T10:00:46.176Z,51.02
2023-04-05T10:01:47.222Z,50.54
2023-04-05T10:02:47.683Z,50.09
2023-04-05T10:03:48.350Z,49.33
2023-04-05T10:04:48.257Z,49.44
2023-04-05T10:05:48.802Z,50.78
2023-04-05T10:06:49.977Z,50.98
2023-04-05T10:07:50.118Z,50.52
2023-04-05T10:08:50.595Z,49.59
2023-04-05T10:09:51.133Z,47.89
2023-04-05T10:10:52.131Z,48.57
2023-04-05T10:11:52.848Z,49.64
2023-04-05T10:12:53.804Z,47.53
2023-04-05T10:13:54.734Z,47.27
2023-04-05T10:14:54.921Z,45.17
2023-04-05T10:15:55.960Z,43.83
2023-04-05T10:16:57.188Z,42.68
2023-04-05T10:17:57.876Z,42.87
2023-04-05T10:18:59.033Z,42.94
2023-04-05T10:19:59.853Z,44.95
2023-04-05T10:21:00.099Z,46.3
2023-04-05T10:22:00.901Z,45.45
2023-04-05T10:23:01.226Z,45.74
2023-04-05T10:24:01.154Z,45.45
2023-04-05T10:25:01.918Z,44.62
2023-04-05T10:26:02.311Z,43.66
2023-04-05T10:27:02.976Z,44.04
2023-04-05T10:28:03.922Z,43.18
2023-04-05T10:29:04.708Z,43.66
2023-04-05T10:30:05.707Z,43.68
2023-04-05T10:31:06.533Z,43.1
2023-04-05T10:32:07.172Z,42.99
2023-04-05T10:33:07.666Z,41.72
2023-04-05T10:34:08.127Z,40.94
2023-04-05T10:35:08.632Z,43.59
2023-04-05T10:36:09.659Z,44.07
2023-04-05T10:37:10.134Z,44.74
2023-04-05T10:38:10.897Z,46.48
2023-04-05T10:39:11.753Z,45.24
2023-04-05T10:40:11.982Z,44.19
2023-04-05T10:41:12.766Z,44.48
2023-04-05T10:42:13.332Z,45.65
2023-04-05T10:43:14.431Z,44.98
2023-04-05T10:44:28.150Z,44.9
2023-04-05T10:45:16.174Z,44.13
2023-04-05T10:46:16.520Z,42.14
2023-04-05T10:47:17.811Z,42.13
2023-04-05T10:48:18.067Z,42.9
2023-04-05T10:49:18.861Z,44.81
2023-04-05T10:50:19.322Z,44.9
2023-04-05T10:51:19.884Z,43.66
2023-04-05T10:52:20.941Z,42.63
2023-04-05T10:53:21.719Z,43.18
2023-04-05T10:54:22.809Z,43.66
2023-04-05T10:55:23.400Z,42.77
2023-04-05T10:56:24.242Z,42.08
2023-04-05T10:57:25.109Z,42.27
2023-04-05T10:58:25.393Z,42.07
2023-04-05T10:59:26.520Z,42.07
2023-04-05T11:00:26.894Z,44.65
2023-04-05T11:01:28.075Z,43.59
2023-04-05T11:02:28.598Z,43.59
2023-04-05T11:03:29.799Z,44.93
2023-04-05T11:04:29.622Z,44.84
2023-04-05T11:05:30.111Z,44.84
2023-04-05T11:06:31.086Z,44.81
2023-04-05T11:07:32.032Z,45.48
2023-04-05T11:08:32.397Z,46.15
2023-04-05T11:09:33.355Z,45.48
2023-04-05T11:10:34.109Z,45.29
2023-04-05T11:11:34.258Z,44.81
2023-04-05T11:12:34.770Z,45.6
2023-04-05T11:13:35.529Z,43.8
2023-04-05T11:14:36.206Z,44.09
2023-04-05T11:15:36.521Z,42.37
2023-04-05T11:16:37.416Z,42.58
2023-04-05T11:17:37.709Z,41.91
2023-04-05T11:18:37.773Z,42.41
2023-04-05T11:19:38.269Z,42.22
2023-04-05T11:20:39.041Z,40.21
2023-04-05T11:21:40.173Z,40.21
2023-04-05T11:22:40.865Z,41.55
2023-04-05T11:23:41.382Z,42.05
2023-04-05T11:24:42.334Z,41.09
2023-04-05T11:25:42.850Z,41.57
2023-04-05T11:26:43.361Z,43.66
2023-04-05T11:27:44.199Z,42.7
2023-04-05T11:28:44.824Z,43.76
2023-04-05T11:29:44.928Z,43.56
2023-04-05T11:30:45.941Z,44.4
2023-04-05T11:31:46.319Z,43.44
2023-04-05T11:32:47.178Z,43.06
2023-04-05T11:33:55.591Z,45.36
2023-04-05T11:34:48.902Z,45.74
2023-04-05T11:35:49.616Z,46.31
2023-04-05T11:36:49.640Z,46.03
2023-04-05T11:37:50.334Z,44.69
2023-04-05T11:38:51.209Z,44.69
2023-04-05T11:39:51.921Z,43.23
2023-04-05T11:40:52.477Z,43.71
2023-04-05T11:41:53.382Z,44.38
2023-04-05T11:42:54.251Z,44.84
2023-04-05T11:43:54.759Z,46.94
2023-04-05T11:44:55.272Z,47.52
2023-04-05T11:45:56.039Z,47.8
2023-04-05T11:46:57.151Z,46.17
2023-04-05T11:47:57.265Z,43.59
2023-04-05T11:48:57.909Z,41.68
2023-04-05T11:49:58.025Z,40.8
2023-04-05T11:50:58.988Z,41.56
2023-04-05T11:51:59.491Z,41.16
2023-04-05T11:53:00.536Z,41.06
2023-04-05T11:54:00.291Z,41.35
2023-04-05T11:55:03.002Z,41.62
2023-04-05T11:56:02.554Z,45.25
2023-04-05T11:57:02.905Z,47.44
2023-04-05T11:58:03.606Z,47.92
2023-04-05T11:59:04.299Z,46.99
2023-04-05T12:00:05.179Z,49.28
2023-04-05T12:01:05.931Z,47.58
2023-04-05T12:02:06.650Z,45.48
2023-04-05T12:03:07.843Z,45.58
2023-04-05T12:04:07.668Z,45.58
2023-04-05T12:05:08.504Z,46.44
2023-04-05T12:06:09.644Z,47.78
2023-04-05T12:07:10.374Z,45.87
2023-04-05T12:08:11.089Z,45.96
2023-04-05T12:09:12.373Z,45.22
2023-04-05T12:10:12.905Z,46.37
2023-04-05T12:11:13.685Z,46.27
2023-04-05T12:12:14.194Z,45.22
2023-04-05T12:13:14.512Z,43.88
2023-04-05T12:14:15.483Z,44.38
2023-04-05T12:15:16.551Z,47.34
2023-04-05T12:16:17.427Z,48.78
2023-04-05T12:17:17.470Z,46.2
2023-04-05T12:18:18.278Z,44.86
2023-04-05T12:19:19.081Z,46.3
2023-04-05T12:20:19.804Z,45.62
2023-04-05T12:21:20.735Z,42.94
2023-04-05T12:22:21.651Z,42.37
2023-04-05T12:23:22.247Z,41.8
2023-04-05T12:24:23.180Z,40.94
2023-04-05T12:25:23.968Z,39.98
2023-04-05T12:26:24.910Z,41.97
2023-04-05T12:27:25.834Z,42.35
2023-04-05T12:28:26.558Z,43.12
2023-04-05T12:29:27.482Z,42.94
2023-04-05T12:30:28.303Z,42.66
2023-04-05T12:31:29.163Z,42.94
2023-04-05T12:32:29.106Z,42.66
2023-04-05T12:33:29.984Z,43.52
2023-04-05T12:34:30.872Z,41.44
2023-04-05T12:35:31.786Z,40.86
2023-04-05T12:36:31.974Z,40.58
2023-04-05T12:37:32.705Z,39.6
2023-04-05T12:38:33.744Z,42.56
2023-04-05T12:39:33.913Z,42.66
2023-04-05T12:40:33.805Z,43.62
2023-04-05T12:41:34.709Z,45.43
2023-04-05T12:42:35.697Z,44.29
2023-04-05T12:43:35.912Z,43.04
2023-04-05T12:44:36.509Z,43.52
2023-04-05T12:45:37.284Z,43.8
2023-04-05T12:46:38.156Z,42.94
2023-04-05T12:47:38.856Z,41.51
2023-04-05T12:48:39.927Z,42.56
2023-04-05T12:49:40.364Z,41.8
2023-04-05T12:50:40.668Z,42.56
2023-04-05T12:51:41.692Z,43.59
2023-04-05T12:52:42.301Z,43.69
2023-04-05T12:53:43.072Z,42.73
2023-04-05T12:54:43.792Z,43.02
2023-04-05T12:55:45.135Z,42.64
2023-04-05T12:56:45.085Z,44.17
2023-04-05T12:57:45.827Z,44.26
2023-04-05T12:58:46.009Z,44.07
2023-04-05T12:59:47.060Z,44.67
2023-04-05T13:00:47.994Z,43.71
2023-04-05T13:01:48.372Z,43.71
2023-04-05T13:02:49.241Z,43.71
2023-04-05T13:03:53.351Z,43.71
2023-04-05T13:04:51.025Z,41.32
2023-04-05T13:05:51.524Z,40.95